sensor_id;sensor_type;location;lat;lon;timestamp;P1;durP1;ratioP1;P2;durP2;ratioP2
20721;SDS011;10522;52.198;9.890;2023-04-25T00:01:55;13.93;;;4.53;;
20721;SDS011;10522;52.198;9.890;2023-04-25T00:04:21;12.03;;;4.80;;
20721;SDS011;10522;52.198;9.890;2023-04-25T00:06:47;11.73;;;4.87;;
20721;SDS011;10522;52.198;9.890;2023-04-25T00:09:13;10.60;;;4.60;;
20721;SDS011;10522;52.198;9.890;2023-04-25T00:11:40;16.67;;;4.77;;
20721;SDS011;10522;52.198;9.890;2023-04-25T00:14:05;12.93;;;5.20;;
20721;SDS011;10522;52.198;9.890;2023-04-25T00:16:32;15.43;;;5.37;;
20721;SDS011;10522;52.198;9.890;2023-04-25T00:18:59;12.67;;;4.67;;
20721;SDS011;10522;52.198;9.890;2023-04-25T00:21:26;14.67;;;4.40;;
20721;SDS011;10522;52.198;9.890;2023-04-25T00:23:53;14.70;;;6.30;;
20721;SDS011;10522;52.198;9.890;2023-04-25T00:26:20;9.53;;;4.73;;
20721;SDS011;10522;52.198;9.890;2023-04-25T00:28:48;13.33;;;5.03;;
20721;SDS011;10522;52.198;9.890;2023-04-25T00:31:14;15.77;;;5.30;;
20721;SDS011;10522;52.198;9.890;2023-04-25T00:33:39;15.40;;;5.70;;
20721;SDS011;10522;52.198;9.890;2023-04-25T00:36:05;11.63;;;5.00;;
20721;SDS011;10522;52.198;9.890;2023-04-25T00:38:31;10.83;;;5.57;;
20721;SDS011;10522;52.198;9.890;2023-04-25T00:40:57;16.53;;;7.10;;
20721;SDS011;10522;52.198;9.890;2023-04-25T00:43:25;15.07;;;6.20;;
20721;SDS011;10522;52.198;9.890;2023-04-25T00:45:52;21.77;;;6.03;;
20721;SDS011;10522;52.198;9.890;2023-04-25T00:48:18;14.23;;;6.27;;
20721;SDS011;10522;52.198;9.890;2023-04-25T00:50:55;16.07;;;5.97;;
20721;SDS011;10522;52.198;9.890;2023-04-25T00:53:24;17.07;;;6.73;;
20721;SDS011;10522;52.198;9.890;2023-04-25T00:55:50;20.17;;;7.87;;
20721;SDS011;10522;52.198;9.890;2023-04-25T00:58:17;22.07;;;5.57;;
20721;SDS011;10522;52.198;9.890;2023-04-25T01:00:47;15.07;;;6.53;;
20721;SDS011;10522;52.198;9.890;2023-04-25T01:03:14;18.50;;;7.33;;
20721;SDS011;10522;52.198;9.890;2023-04-25T01:05:41;15.77;;;6.33;;
20721;SDS011;10522;52.198;9.890;2023-04-25T01:08:07;12.27;;;5.67;;
20721;SDS011;10522;52.198;9.890;2023-04-25T01:10:33;20.27;;;7.73;;
20721;SDS011;10522;52.198;9.890;2023-04-25T01:12:58;14.57;;;6.13;;
20721;SDS011;10522;52.198;9.890;2023-04-25T01:15:24;16.37;;;7.20;;
20721;SDS011;10522;52.198;9.890;2023-04-25T01:17:49;13.20;;;6.17;;
20721;SDS011;10522;52.198;9.890;2023-04-25T01:20:15;14.20;;;6.00;;
20721;SDS011;10522;52.198;9.890;2023-04-25T01:22:41;15.30;;;6.60;;
20721;SDS011;10522;52.198;9.890;2023-04-25T01:25:08;12.53;;;6.37;;
20721;SDS011;10522;52.198;9.890;2023-04-25T01:27:34;17.30;;;6.70;;
20721;SDS011;10522;52.198;9.890;2023-04-25T01:30:01;15.60;;;7.17;;
20721;SDS011;10522;52.198;9.890;2023-04-25T01:32:28;18.13;;;6.97;;
20721;SDS011;10522;52.198;9.890;2023-04-25T01:34:56;15.53;;;7.40;;
20721;SDS011;10522;52.198;9.890;2023-04-25T01:37:22;11.47;;;5.60;;
20721;SDS011;10522;52.198;9.890;2023-04-25T01:39:47;19.23;;;8.10;;
20721;SDS011;10522;52.198;9.890;2023-04-25T01:42:15;16.10;;;7.40;;
20721;SDS011;10522;52.198;9.890;2023-04-25T01:44:40;16.43;;;6.87;;
20721;SDS011;10522;52.198;9.890;2023-04-25T01:47:06;19.13;;;8.20;;
20721;SDS011;10522;52.198;9.890;2023-04-25T01:49:31;19.90;;;9.03;;
20721;SDS011;10522;52.198;9.890;2023-04-25T01:51:57;14.00;;;6.77;;
20721;SDS011;10522;52.198;9.890;2023-04-25T01:54:23;20.67;;;6.50;;
20721;SDS011;10522;52.198;9.890;2023-04-25T01:56:51;13.60;;;7.50;;
20721;SDS011;10522;52.198;9.890;2023-04-25T01:59:18;14.20;;;6.97;;
20721;SDS011;10522;52.198;9.890;2023-04-25T02:01:46;15.30;;;8.23;;
20721;SDS011;10522;52.198;9.890;2023-04-25T02:04:12;13.43;;;7.00;;
20721;SDS011;10522;52.198;9.890;2023-04-25T02:06:37;17.70;;;9.23;;
20721;SDS011;10522;52.198;9.890;2023-04-25T02:09:03;22.20;;;8.97;;
20721;SDS011;10522;52.198;9.890;2023-04-25T02:11:28;21.50;;;9.47;;
20721;SDS011;10522;52.198;9.890;2023-04-25T02:13:54;18.00;;;8.23;;
20721;SDS011;10522;52.198;9.890;2023-04-25T02:16:19;21.93;;;8.17;;
20721;SDS011;10522;52.198;9.890;2023-04-25T02:18:45;20.83;;;8.43;;
20721;SDS011;10522;52.198;9.890;2023-04-25T02:21:11;19.53;;;8.33;;
20721;SDS011;10522;52.198;9.890;2023-04-25T02:23:37;20.40;;;9.60;;
20721;SDS011;10522;52.198;9.890;2023-04-25T02:26:03;15.73;;;9.13;;
20721;SDS011;10522;52.198;9.890;2023-04-25T02:28:28;20.20;;;8.97;;
20721;SDS011;10522;52.198;9.890;2023-04-25T02:30:54;18.53;;;8.30;;
20721;SDS011;10522;52.198;9.890;2023-04-25T02:33:19;18.50;;;9.17;;
20721;SDS011;10522;52.198;9.890;2023-04-25T02:35:46;20.47;;;8.83;;
20721;SDS011;10522;52.198;9.890;2023-04-25T02:38:11;22.13;;;8.50;;
20721;SDS011;10522;52.198;9.890;2023-04-25T02:40:37;19.23;;;7.77;;
20721;SDS011;10522;52.198;9.890;2023-04-25T02:43:03;18.20;;;8.53;;
20721;SDS011;10522;52.198;9.890;2023-04-25T02:45:28;20.80;;;7.73;;
20721;SDS011;10522;52.198;9.890;2023-04-25T02:47:54;16.40;;;8.23;;
20721;SDS011;10522;52.198;9.890;2023-04-25T02:50:19;12.27;;;6.63;;
20721;SDS011;10522;52.198;9.890;2023-04-25T02:52:45;16.63;;;7.33;;
20721;SDS011;10522;52.198;9.890;2023-04-25T02:55:11;15.53;;;6.67;;
20721;SDS011;10522;52.198;9.890;2023-04-25T02:57:38;15.83;;;7.37;;
20721;SDS011;10522;52.198;9.890;2023-04-25T03:00:03;11.30;;;6.67;;
20721;SDS011;10522;52.198;9.890;2023-04-25T03:02:30;16.60;;;6.20;;
20721;SDS011;10522;52.198;9.890;2023-04-25T03:04:55;16.87;;;7.20;;
20721;SDS011;10522;52.198;9.890;2023-04-25T03:07:21;16.67;;;4.80;;
20721;SDS011;10522;52.198;9.890;2023-04-25T03:09:47;13.80;;;4.17;;
20721;SDS011;10522;52.198;9.890;2023-04-25T03:12:12;14.83;;;6.40;;
20721;SDS011;10522;52.198;9.890;2023-04-25T03:14:38;18.13;;;5.53;;
20721;SDS011;10522;52.198;9.890;2023-04-25T03:17:03;13.17;;;5.80;;
20721;SDS011;10522;52.198;9.890;2023-04-25T03:19:29;17.63;;;5.93;;
20721;SDS011;10522;52.198;9.890;2023-04-25T03:21:55;19.03;;;4.47;;
20721;SDS011;10522;52.198;9.890;2023-04-25T03:24:21;24.20;;;6.37;;
20721;SDS011;10522;52.198;9.890;2023-04-25T03:26:46;13.73;;;4.37;;
20721;SDS011;10522;52.198;9.890;2023-04-25T03:29:12;19.73;;;5.67;;
20721;SDS011;10522;52.198;9.890;2023-04-25T03:31:38;18.20;;;4.07;;
20721;SDS011;10522;52.198;9.890;2023-04-25T03:34:03;14.13;;;5.23;;
20721;SDS011;10522;52.198;9.890;2023-04-25T03:36:29;14.70;;;4.17;;
20721;SDS011;10522;52.198;9.890;2023-04-25T03:38:54;10.97;;;4.07;;
20721;SDS011;10522;52.198;9.890;2023-04-25T03:41:20;12.77;;;4.47;;
20721;SDS011;10522;52.198;9.890;2023-04-25T03:43:46;14.57;;;4.80;;
20721;SDS011;10522;52.198;9.890;2023-04-25T03:46:11;14.80;;;5.23;;
20721;SDS011;10522;52.198;9.890;2023-04-25T03:48:37;25.00;;;5.27;;
20721;SDS011;10522;52.198;9.890;2023-04-25T03:51:02;17.87;;;5.43;;
20721;SDS011;10522;52.198;9.890;2023-04-25T03:53:28;13.80;;;5.30;;
20721;SDS011;10522;52.198;9.890;2023-04-25T03:55:53;11.70;;;4.17;;
20721;SDS011;10522;52.198;9.890;2023-04-25T03:58:19;16.10;;;4.63;;
20721;SDS011;10522;52.198;9.890;2023-04-25T04:00:45;17.97;;;4.73;;
20721;SDS011;10522;52.198;9.890;2023-04-25T04:03:10;15.57;;;5.03;;
20721;SDS011;10522;52.198;9.890;2023-04-25T04:05:36;17.43;;;5.60;;
20721;SDS011;10522;52.198;9.890;2023-04-25T04:08:02;12.03;;;4.77;;
20721;SDS011;10522;52.198;9.890;2023-04-25T04:10:28;16.60;;;5.70;;
20721;SDS011;10522;52.198;9.890;2023-04-25T04:12:53;22.10;;;5.37;;
20721;SDS011;10522;52.198;9.890;2023-04-25T04:15:19;15.03;;;4.97;;
20721;SDS011;10522;52.198;9.890;2023-04-25T04:17:44;15.37;;;4.73;;
20721;SDS011;10522;52.198;9.890;2023-04-25T04:20:11;19.77;;;5.17;;
20721;SDS011;10522;52.198;9.890;2023-04-25T04:22:37;22.70;;;5.43;;
20721;SDS011;10522;52.198;9.890;2023-04-25T04:25:03;21.57;;;5.60;;
20721;SDS011;10522;52.198;9.890;2023-04-25T04:27:30;14.63;;;4.17;;
20721;SDS011;10522;52.198;9.890;2023-04-25T04:29:56;21.70;;;6.27;;
20721;SDS011;10522;52.198;9.890;2023-04-25T04:32:22;17.83;;;4.83;;
20721;SDS011;10522;52.198;9.890;2023-04-25T04:34:48;17.63;;;5.30;;
20721;SDS011;10522;52.198;9.890;2023-04-25T04:37:14;10.97;;;4.93;;
20721;SDS011;10522;52.198;9.890;2023-04-25T04:39:40;15.63;;;4.37;;
20721;SDS011;10522;52.198;9.890;2023-04-25T04:42:06;19.97;;;6.67;;
20721;SDS011;10522;52.198;9.890;2023-04-25T04:44:32;19.33;;;4.83;;
20721;SDS011;10522;52.198;9.890;2023-04-25T04:46:59;21.03;;;4.53;;
20721;SDS011;10522;52.198;9.890;2023-04-25T04:49:25;12.27;;;5.80;;
20721;SDS011;10522;52.198;9.890;2023-04-25T04:51:51;24.13;;;5.57;;
20721;SDS011;10522;52.198;9.890;2023-04-25T04:54:17;19.00;;;5.17;;
20721;SDS011;10522;52.198;9.890;2023-04-25T04:56:42;16.40;;;5.00;;
20721;SDS011;10522;52.198;9.890;2023-04-25T04:59:08;15.53;;;4.83;;
20721;SDS011;10522;52.198;9.890;2023-04-25T05:01:34;20.17;;;4.57;;
20721;SDS011;10522;52.198;9.890;2023-04-25T05:04:02;20.67;;;4.83;;
20721;SDS011;10522;52.198;9.890;2023-04-25T05:06:28;15.23;;;5.07;;
20721;SDS011;10522;52.198;9.890;2023-04-25T05:08:54;20.70;;;4.93;;
20721;SDS011;10522;52.198;9.890;2023-04-25T05:11:21;17.87;;;4.97;;
20721;SDS011;10522;52.198;9.890;2023-04-25T05:13:47;15.17;;;4.70;;
20721;SDS011;10522;52.198;9.890;2023-04-25T05:16:12;17.47;;;4.47;;
20721;SDS011;10522;52.198;9.890;2023-04-25T05:18:39;22.43;;;6.07;;
20721;SDS011;10522;52.198;9.890;2023-04-25T05:21:05;19.03;;;4.47;;
20721;SDS011;10522;52.198;9.890;2023-04-25T05:23:31;21.87;;;5.33;;
20721;SDS011;10522;52.198;9.890;2023-04-25T05:25:57;22.13;;;5.10;;
20721;SDS011;10522;52.198;9.890;2023-04-25T05:28:23;14.10;;;4.90;;
20721;SDS011;10522;52.198;9.890;2023-04-25T05:30:49;18.40;;;4.60;;
20721;SDS011;10522;52.198;9.890;2023-04-25T05:33:15;18.23;;;4.13;;
20721;SDS011;10522;52.198;9.890;2023-04-25T05:35:41;20.47;;;5.20;;
20721;SDS011;10522;52.198;9.890;2023-04-25T05:38:07;19.77;;;5.63;;
20721;SDS011;10522;52.198;9.890;2023-04-25T05:40:32;21.20;;;4.80;;
20721;SDS011;10522;52.198;9.890;2023-04-25T05:42:58;22.37;;;5.10;;
20721;SDS011;10522;52.198;9.890;2023-04-25T05:45:23;16.90;;;5.20;;
20721;SDS011;10522;52.198;9.890;2023-04-25T05:47:49;22.83;;;5.17;;
20721;SDS011;10522;52.198;9.890;2023-04-25T05:50:14;16.47;;;4.00;;
20721;SDS011;10522;52.198;9.890;2023-04-25T05:52:40;20.43;;;5.13;;
20721;SDS011;10522;52.198;9.890;2023-04-25T05:55:06;17.00;;;4.20;;
20721;SDS011;10522;52.198;9.890;2023-04-25T05:57:32;22.50;;;4.40;;
20721;SDS011;10522;52.198;9.890;2023-04-25T05:59:57;18.50;;;4.70;;
20721;SDS011;10522;52.198;9.890;2023-04-25T06:02:23;15.87;;;3.07;;
20721;SDS011;10522;52.198;9.890;2023-04-25T06:04:49;19.80;;;5.03;;
20721;SDS011;10522;52.198;9.890;2023-04-25T06:07:16;12.73;;;3.53;;
20721;SDS011;10522;52.198;9.890;2023-04-25T06:09:42;26.83;;;4.13;;
20721;SDS011;10522;52.198;9.890;2023-04-25T06:12:08;20.80;;;4.27;;
20721;SDS011;10522;52.198;9.890;2023-04-25T06:14:34;14.83;;;4.17;;
20721;SDS011;10522;52.198;9.890;2023-04-25T06:17:06;16.37;;;3.83;;
20721;SDS011;10522;52.198;9.890;2023-04-25T06:19:33;16.63;;;3.60;;
20721;SDS011;10522;52.198;9.890;2023-04-25T06:22:00;20.57;;;3.63;;
20721;SDS011;10522;52.198;9.890;2023-04-25T06:24:25;15.87;;;3.97;;
20721;SDS011;10522;52.198;9.890;2023-04-25T06:26:54;19.83;;;3.90;;
20721;SDS011;10522;52.198;9.890;2023-04-25T06:29:23;16.07;;;3.47;;
20721;SDS011;10522;52.198;9.890;2023-04-25T06:31:48;15.27;;;4.70;;
20721;SDS011;10522;52.198;9.890;2023-04-25T06:34:14;18.53;;;4.73;;
20721;SDS011;10522;52.198;9.890;2023-04-25T06:36:40;15.33;;;4.57;;
20721;SDS011;10522;52.198;9.890;2023-04-25T06:39:06;24.70;;;5.60;;
20721;SDS011;10522;52.198;9.890;2023-04-25T06:41:32;16.47;;;3.33;;
20721;SDS011;10522;52.198;9.890;2023-04-25T06:43:58;9.97;;;3.60;;
20721;SDS011;10522;52.198;9.890;2023-04-25T06:46:24;11.90;;;3.53;;
20721;SDS011;10522;52.198;9.890;2023-04-25T06:48:49;17.80;;;3.57;;
20721;SDS011;10522;52.198;9.890;2023-04-25T06:51:16;21.37;;;3.77;;
20721;SDS011;10522;52.198;9.890;2023-04-25T06:53:41;16.73;;;3.67;;
20721;SDS011;10522;52.198;9.890;2023-04-25T06:56:07;21.40;;;3.63;;
20721;SDS011;10522;52.198;9.890;2023-04-25T06:58:32;21.23;;;3.77;;
20721;SDS011;10522;52.198;9.890;2023-04-25T07:00:58;17.20;;;4.67;;
20721;SDS011;10522;52.198;9.890;2023-04-25T07:03:23;11.63;;;2.93;;
20721;SDS011;10522;52.198;9.890;2023-04-25T07:05:49;9.53;;;3.10;;
20721;SDS011;10522;52.198;9.890;2023-04-25T07:08:15;16.43;;;3.57;;
20721;SDS011;10522;52.198;9.890;2023-04-25T07:10:41;12.70;;;3.70;;
20721;SDS011;10522;52.198;9.890;2023-04-25T07:13:07;15.87;;;4.17;;
20721;SDS011;10522;52.198;9.890;2023-04-25T07:15:33;10.93;;;3.03;;
20721;SDS011;10522;52.198;9.890;2023-04-25T07:17:58;13.30;;;2.80;;
20721;SDS011;10522;52.198;9.890;2023-04-25T07:20:24;11.97;;;2.90;;
20721;SDS011;10522;52.198;9.890;2023-04-25T07:22:50;10.20;;;2.40;;
20721;SDS011;10522;52.198;9.890;2023-04-25T07:25:16;19.83;;;3.07;;
20721;SDS011;10522;52.198;9.890;2023-04-25T07:27:42;16.23;;;3.53;;
20721;SDS011;10522;52.198;9.890;2023-04-25T07:30:07;13.37;;;3.40;;
20721;SDS011;10522;52.198;9.890;2023-04-25T07:32:33;20.17;;;3.03;;
20721;SDS011;10522;52.198;9.890;2023-04-25T07:34:59;19.27;;;3.43;;
20721;SDS011;10522;52.198;9.890;2023-04-25T07:37:26;9.53;;;3.13;;
20721;SDS011;10522;52.198;9.890;2023-04-25T07:39:52;13.33;;;2.90;;
20721;SDS011;10522;52.198;9.890;2023-04-25T07:42:17;12.97;;;3.33;;
20721;SDS011;10522;52.198;9.890;2023-04-25T07:44:43;15.33;;;3.33;;
20721;SDS011;10522;52.198;9.890;2023-04-25T07:47:09;7.30;;;2.60;;
20721;SDS011;10522;52.198;9.890;2023-04-25T07:49:35;11.60;;;3.07;;
20721;SDS011;10522;52.198;9.890;2023-04-25T07:52:02;12.00;;;3.13;;
20721;SDS011;10522;52.198;9.890;2023-04-25T07:54:30;11.70;;;2.57;;
20721;SDS011;10522;52.198;9.890;2023-04-25T07:56:56;11.63;;;2.10;;
20721;SDS011;10522;52.198;9.890;2023-04-25T07:59:21;12.10;;;3.33;;
20721;SDS011;10522;52.198;9.890;2023-04-25T08:01:47;15.60;;;3.23;;
20721;SDS011;10522;52.198;9.890;2023-04-25T08:04:12;9.67;;;3.77;;
20721;SDS011;10522;52.198;9.890;2023-04-25T08:06:38;8.87;;;2.73;;
20721;SDS011;10522;52.198;9.890;2023-04-25T08:09:05;14.33;;;2.87;;
20721;SDS011;10522;52.198;9.890;2023-04-25T08:11:31;10.90;;;2.53;;
20721;SDS011;10522;52.198;9.890;2023-04-25T08:13:56;13.03;;;3.23;;
20721;SDS011;10522;52.198;9.890;2023-04-25T08:16:22;14.30;;;2.63;;
20721;SDS011;10522;52.198;9.890;2023-04-25T08:18:48;11.30;;;2.50;;
20721;SDS011;10522;52.198;9.890;2023-04-25T08:21:15;9.73;;;2.67;;
20721;SDS011;10522;52.198;9.890;2023-04-25T08:23:40;11.90;;;2.53;;
20721;SDS011;10522;52.198;9.890;2023-04-25T08:26:06;10.10;;;2.57;;
20721;SDS011;10522;52.198;9.890;2023-04-25T08:28:32;7.50;;;2.33;;
20721;SDS011;10522;52.198;9.890;2023-04-25T08:30:57;7.27;;;1.93;;
20721;SDS011;10522;52.198;9.890;2023-04-25T08:33:23;10.60;;;2.47;;
20721;SDS011;10522;52.198;9.890;2023-04-25T08:35:49;9.87;;;2.50;;
20721;SDS011;10522;52.198;9.890;2023-04-25T08:38:14;12.13;;;2.50;;
20721;SDS011;10522;52.198;9.890;2023-04-25T08:40:40;12.93;;;2.47;;
20721;SDS011;10522;52.198;9.890;2023-04-25T08:43:08;7.83;;;3.40;;
20721;SDS011;10522;52.198;9.890;2023-04-25T08:45:36;11.57;;;2.20;;
20721;SDS011;10522;52.198;9.890;2023-04-25T08:48:06;6.63;;;1.93;;
20721;SDS011;10522;52.198;9.890;2023-04-25T08:50:40;11.17;;;2.13;;
20721;SDS011;10522;52.198;9.890;2023-04-25T08:53:26;16.27;;;2.10;;
20721;SDS011;10522;52.198;9.890;2023-04-25T08:55:54;5.53;;;2.07;;
20721;SDS011;10522;52.198;9.890;2023-04-25T08:58:20;7.33;;;1.90;;
20721;SDS011;10522;52.198;9.890;2023-04-25T09:00:48;7.23;;;1.93;;
20721;SDS011;10522;52.198;9.890;2023-04-25T09:03:16;12.53;;;2.90;;
20721;SDS011;10522;52.198;9.890;2023-04-25T09:05:42;7.53;;;2.10;;
20721;SDS011;10522;52.198;9.890;2023-04-25T09:08:08;8.97;;;2.00;;
20721;SDS011;10522;52.198;9.890;2023-04-25T09:10:34;7.80;;;1.90;;
20721;SDS011;10522;52.198;9.890;2023-04-25T09:13:04;25.30;;;2.73;;
20721;SDS011;10522;52.198;9.890;2023-04-25T09:18:27;8.20;;;2.43;;
20721;SDS011;10522;52.198;9.890;2023-04-25T09:21:06;10.33;;;2.10;;
20721;SDS011;10522;52.198;9.890;2023-04-25T09:23:38;12.20;;;2.47;;
20721;SDS011;10522;52.198;9.890;2023-04-25T09:26:06;10.03;;;2.33;;
20721;SDS011;10522;52.198;9.890;2023-04-25T09:28:33;9.57;;;2.07;;
20721;SDS011;10522;52.198;9.890;2023-04-25T09:31:00;6.27;;;3.07;;
20721;SDS011;10522;52.198;9.890;2023-04-25T09:33:32;7.30;;;1.87;;
20721;SDS011;10522;52.198;9.890;2023-04-25T09:36:02;10.53;;;2.33;;
20721;SDS011;10522;52.198;9.890;2023-04-25T09:38:43;14.73;;;3.17;;
20721;SDS011;10522;52.198;9.890;2023-04-25T09:41:10;11.43;;;2.20;;
20721;SDS011;10522;52.198;9.890;2023-04-25T09:43:36;7.43;;;2.27;;
20721;SDS011;10522;52.198;9.890;2023-04-25T09:46:02;7.43;;;1.87;;
20721;SDS011;10522;52.198;9.890;2023-04-25T09:48:32;5.07;;;1.70;;
20721;SDS011;10522;52.198;9.890;2023-04-25T09:51:05;6.90;;;1.80;;
20721;SDS011;10522;52.198;9.890;2023-04-25T09:53:39;5.23;;;1.40;;
20721;SDS011;10522;52.198;9.890;2023-04-25T09:56:07;1.83;;;0.70;;
20721;SDS011;10522;52.198;9.890;2023-04-25T09:58:34;4.53;;;1.53;;
20721;SDS011;10522;52.198;9.890;2023-04-25T10:01:04;11.27;;;2.47;;
20721;SDS011;10522;52.198;9.890;2023-04-25T10:03:31;5.77;;;2.07;;
20721;SDS011;10522;52.198;9.890;2023-04-25T10:06:01;5.40;;;2.20;;
20721;SDS011;10522;52.198;9.890;2023-04-25T10:08:35;7.30;;;1.50;;
20721;SDS011;10522;52.198;9.890;2023-04-25T10:11:02;4.17;;;1.73;;
20721;SDS011;10522;52.198;9.890;2023-04-25T10:13:30;4.97;;;1.40;;
20721;SDS011;10522;52.198;9.890;2023-04-25T10:15:57;10.50;;;2.00;;
20721;SDS011;10522;52.198;9.890;2023-04-25T10:18:25;3.37;;;1.70;;
20721;SDS011;10522;52.198;9.890;2023-04-25T10:20:53;6.93;;;1.50;;
20721;SDS011;10522;52.198;9.890;2023-04-25T10:23:23;9.40;;;1.77;;
20721;SDS011;10522;52.198;9.890;2023-04-25T10:25:52;7.33;;;1.80;;
20721;SDS011;10522;52.198;9.890;2023-04-25T10:28:19;6.40;;;2.00;;
20721;SDS011;10522;52.198;9.890;2023-04-25T10:31:04;9.00;;;2.17;;
20721;SDS011;10522;52.198;9.890;2023-04-25T10:33:33;4.87;;;1.87;;
20721;SDS011;10522;52.198;9.890;2023-04-25T10:36:10;6.47;;;1.60;;
20721;SDS011;10522;52.198;9.890;2023-04-25T10:38:37;9.80;;;2.13;;
20721;SDS011;10522;52.198;9.890;2023-04-25T10:41:04;4.90;;;1.60;;
20721;SDS011;10522;52.198;9.890;2023-04-25T10:48:55;5.27;;;1.93;;
20721;SDS011;10522;52.198;9.890;2023-04-25T10:51:23;6.53;;;1.47;;
20721;SDS011;10522;52.198;9.890;2023-04-25T10:54:00;6.37;;;1.70;;
20721;SDS011;10522;52.198;9.890;2023-04-25T10:56:30;7.67;;;3.17;;
20721;SDS011;10522;52.198;9.890;2023-04-25T10:59:07;6.57;;;1.80;;
20721;SDS011;10522;52.198;9.890;2023-04-25T11:01:38;8.73;;;1.67;;
20721;SDS011;10522;52.198;9.890;2023-04-25T11:04:05;11.73;;;2.03;;
20721;SDS011;10522;52.198;9.890;2023-04-25T11:06:42;8.97;;;2.13;;
20721;SDS011;10522;52.198;9.890;2023-04-25T11:09:20;7.80;;;2.00;;
20721;SDS011;10522;52.198;9.890;2023-04-25T11:11:55;9.33;;;2.20;;
20721;SDS011;10522;52.198;9.890;2023-04-25T11:14:22;8.33;;;2.10;;
20721;SDS011;10522;52.198;9.890;2023-04-25T11:16:52;8.27;;;2.10;;
20721;SDS011;10522;52.198;9.890;2023-04-25T11:19:22;6.07;;;2.27;;
20721;SDS011;10522;52.198;9.890;2023-04-25T11:21:48;8.93;;;2.37;;
20721;SDS011;10522;52.198;9.890;2023-04-25T11:24:13;7.87;;;1.93;;
20721;SDS011;10522;52.198;9.890;2023-04-25T11:26:41;11.13;;;2.33;;
20721;SDS011;10522;52.198;9.890;2023-04-25T11:29:07;4.70;;;1.97;;
20721;SDS011;10522;52.198;9.890;2023-04-25T11:31:33;8.27;;;2.30;;
20721;SDS011;10522;52.198;9.890;2023-04-25T11:33:59;6.03;;;2.07;;
20721;SDS011;10522;52.198;9.890;2023-04-25T11:36:25;8.13;;;2.13;;
20721;SDS011;10522;52.198;9.890;2023-04-25T11:38:51;6.47;;;2.43;;
20721;SDS011;10522;52.198;9.890;2023-04-25T11:41:19;7.70;;;2.43;;
20721;SDS011;10522;52.198;9.890;2023-04-25T11:43:45;9.30;;;2.27;;
20721;SDS011;10522;52.198;9.890;2023-04-25T11:46:11;6.33;;;2.40;;
20721;SDS011;10522;52.198;9.890;2023-04-25T11:48:45;6.43;;;1.93;;
20721;SDS011;10522;52.198;9.890;2023-04-25T11:51:12;6.53;;;2.13;;
20721;SDS011;10522;52.198;9.890;2023-04-25T11:53:40;8.20;;;2.20;;
20721;SDS011;10522;52.198;9.890;2023-04-25T11:56:10;4.03;;;1.67;;
20721;SDS011;10522;52.198;9.890;2023-04-25T12:01:28;9.73;;;2.13;;
20721;SDS011;10522;52.198;9.890;2023-04-25T12:03:58;5.63;;;2.60;;
20721;SDS011;10522;52.198;9.890;2023-04-25T12:06:36;5.00;;;1.87;;
20721;SDS011;10522;52.198;9.890;2023-04-25T12:09:06;11.40;;;2.00;;
20721;SDS011;10522;52.198;9.890;2023-04-25T12:11:40;6.40;;;1.57;;
20721;SDS011;10522;52.198;9.890;2023-04-25T12:14:07;6.33;;;1.93;;
20721;SDS011;10522;52.198;9.890;2023-04-25T12:16:43;5.17;;;1.90;;
20721;SDS011;10522;52.198;9.890;2023-04-25T12:19:09;5.30;;;2.30;;
20721;SDS011;10522;52.198;9.890;2023-04-25T12:21:38;6.70;;;2.10;;
20721;SDS011;10522;52.198;9.890;2023-04-25T12:24:10;6.10;;;1.93;;
20721;SDS011;10522;52.198;9.890;2023-04-25T12:26:47;6.57;;;2.20;;
20721;SDS011;10522;52.198;9.890;2023-04-25T12:29:34;11.17;;;2.17;;
20721;SDS011;10522;52.198;9.890;2023-04-25T12:32:00;6.40;;;2.00;;
20721;SDS011;10522;52.198;9.890;2023-04-25T12:34:28;6.90;;;2.20;;
20721;SDS011;10522;52.198;9.890;2023-04-25T12:36:56;4.40;;;1.73;;
20721;SDS011;10522;52.198;9.890;2023-04-25T12:39:23;11.07;;;2.37;;
20721;SDS011;10522;52.198;9.890;2023-04-25T12:41:49;6.00;;;1.50;;
20721;SDS011;10522;52.198;9.890;2023-04-25T12:44:15;10.37;;;2.00;;
20721;SDS011;10522;52.198;9.890;2023-04-25T12:46:42;2.30;;;0.93;;
20721;SDS011;10522;52.198;9.890;2023-04-25T12:49:08;5.63;;;1.50;;
20721;SDS011;10522;52.198;9.890;2023-04-25T12:51:34;6.47;;;1.67;;
20721;SDS011;10522;52.198;9.890;2023-04-25T12:54:00;7.63;;;1.47;;
20721;SDS011;10522;52.198;9.890;2023-04-25T12:56:27;1.93;;;0.90;;
20721;SDS011;10522;52.198;9.890;2023-04-25T12:58:53;3.90;;;1.30;;
20721;SDS011;10522;52.198;9.890;2023-04-25T13:01:20;4.17;;;1.10;;
20721;SDS011;10522;52.198;9.890;2023-04-25T13:03:46;5.90;;;1.23;;
20721;SDS011;10522;52.198;9.890;2023-04-25T13:06:12;3.07;;;1.40;;
20721;SDS011;10522;52.198;9.890;2023-04-25T13:08:39;2.83;;;1.30;;
20721;SDS011;10522;52.198;9.890;2023-04-25T13:11:05;6.17;;;1.30;;
20721;SDS011;10522;52.198;9.890;2023-04-25T13:13:31;3.53;;;1.30;;
20721;SDS011;10522;52.198;9.890;2023-04-25T13:15:57;4.47;;;1.40;;
20721;SDS011;10522;52.198;9.890;2023-04-25T13:18:23;2.90;;;1.17;;
20721;SDS011;10522;52.198;9.890;2023-04-25T13:20:52;5.10;;;1.50;;
20721;SDS011;10522;52.198;9.890;2023-04-25T13:23:18;2.50;;;1.17;;
20721;SDS011;10522;52.198;9.890;2023-04-25T13:25:44;2.83;;;1.10;;
20721;SDS011;10522;52.198;9.890;2023-04-25T13:28:09;4.03;;;1.37;;
20721;SDS011;10522;52.198;9.890;2023-04-25T13:30:35;4.10;;;1.10;;
20721;SDS011;10522;52.198;9.890;2023-04-25T13:33:01;5.60;;;1.20;;
20721;SDS011;10522;52.198;9.890;2023-04-25T13:35:28;9.50;;;1.90;;
20721;SDS011;10522;52.198;9.890;2023-04-25T13:37:55;3.53;;;1.33;;
20721;SDS011;10522;52.198;9.890;2023-04-25T13:40:21;3.03;;;1.10;;
20721;SDS011;10522;52.198;9.890;2023-04-25T13:42:47;6.80;;;1.73;;
20721;SDS011;10522;52.198;9.890;2023-04-25T13:45:12;9.73;;;2.30;;
20721;SDS011;10522;52.198;9.890;2023-04-25T13:47:38;3.47;;;0.83;;
20721;SDS011;10522;52.198;9.890;2023-04-25T13:50:04;4.93;;;1.70;;
20721;SDS011;10522;52.198;9.890;2023-04-25T13:52:31;2.57;;;1.53;;
20721;SDS011;10522;52.198;9.890;2023-04-25T13:54:56;8.83;;;1.50;;
20721;SDS011;10522;52.198;9.890;2023-04-25T13:57:23;8.57;;;1.60;;
20721;SDS011;10522;52.198;9.890;2023-04-25T13:59:48;6.33;;;1.63;;
20721;SDS011;10522;52.198;9.890;2023-04-25T14:02:15;4.73;;;1.67;;
20721;SDS011;10522;52.198;9.890;2023-04-25T14:04:41;7.70;;;1.47;;
20721;SDS011;10522;52.198;9.890;2023-04-25T14:07:06;6.73;;;1.50;;
20721;SDS011;10522;52.198;9.890;2023-04-25T14:09:32;3.27;;;1.27;;
20721;SDS011;10522;52.198;9.890;2023-04-25T14:11:58;5.53;;;1.70;;
20721;SDS011;10522;52.198;9.890;2023-04-25T14:14:23;5.23;;;1.60;;
20721;SDS011;10522;52.198;9.890;2023-04-25T14:16:49;4.97;;;1.27;;
20721;SDS011;10522;52.198;9.890;2023-04-25T14:19:16;2.30;;;1.70;;
20721;SDS011;10522;52.198;9.890;2023-04-25T14:21:43;6.03;;;2.10;;
20721;SDS011;10522;52.198;9.890;2023-04-25T14:24:09;4.73;;;1.50;;
20721;SDS011;10522;52.198;9.890;2023-04-25T14:26:36;7.43;;;1.60;;
20721;SDS011;10522;52.198;9.890;2023-04-25T14:29:01;5.13;;;1.53;;
20721;SDS011;10522;52.198;9.890;2023-04-25T14:31:28;2.73;;;1.30;;
20721;SDS011;10522;52.198;9.890;2023-04-25T14:33:54;4.37;;;1.37;;
20721;SDS011;10522;52.198;9.890;2023-04-25T14:36:20;4.93;;;1.50;;
20721;SDS011;10522;52.198;9.890;2023-04-25T14:38:46;2.77;;;1.50;;
20721;SDS011;10522;52.198;9.890;2023-04-25T14:41:11;3.50;;;1.80;;
20721;SDS011;10522;52.198;9.890;2023-04-25T14:43:37;4.40;;;1.50;;
20721;SDS011;10522;52.198;9.890;2023-04-25T14:46:04;2.57;;;1.50;;
20721;SDS011;10522;52.198;9.890;2023-04-25T14:48:31;1.97;;;1.30;;
20721;SDS011;10522;52.198;9.890;2023-04-25T14:50:57;3.67;;;1.30;;